Beverly Municipal Airport

About
Name: Beverly Municipal Airport
Identifier:  BVY/KBVY
Serves:  Beverly, Massachusetts
Owner:  City of Beverly
Public/Private:  Public
Local Time:  22. Sep 08:36 EDT
Description: Beverly Regional Airport is a city-owned, public-use airport located in the city of Beverly, in Essex County, Massachusetts, United States, three nautical miles northwest of the city's central business district.
Source: Wikipedia
Location
Runways
Identifier Length (m/ft) Surface
9/27 1,449/4,755 Asphalt
16/34 1,524/5,001 Asphalt
Statistics
Flights per Day:
0 flights
Distance: 609km (378mi)
Flights delayed:
75% (0 flights per day delayed)
Delay Average: 28 minutes
Current Weather
 17 C (Humidity: 82%)
  0kt (0km/h / 0mph) from 0°
  16km (10 mi.)
 
 METAR KBVY 221153Z 00000KT 10SM CLR 17/14 A3014 RMK AO2 SLP202 T01670144 10167 20128 53000

Current Delays

Departures
N/A
Arrivals
N/A

Destinations

Top Destinations
Airport Flights
per week
Seats
per week
  Nantucket (ACK) 0 - 0 0
  Charlottesville (CHO) 0 - 0 0
  Martha's Vineyard (MVY) 0 - 0 0
  Teterboro (TEB) 0 - 0 0
  Niagara Falls (IAG) 0 - 0 0
  Gaithersburg (GAI) 0 - 0 0

Airlines & Planes

Top Airlines
Airline Flights
per Day
Seats
per Day
  Centennial Airlines 0 -
Gama Aviation 0 -
Top Plane Types
Model Flights Seats
Pilatus PC-12 0.2/day - 0
Beech B300 Super King Air 350 0.1/day - 0